createdAt,value
2023-02-23T00:01:49.797Z,100913.11
2023-02-23T00:06:52.377Z,100908.73
2023-02-23T00:11:56.755Z,100899.10
2023-02-23T00:16:59.947Z,100896.05
2023-02-23T00:22:01.709Z,100893.69
2023-02-23T00:27:06.534Z,100896.81
2023-02-23T00:32:08.266Z,100897.39
2023-02-23T00:37:10.269Z,100895.89
2023-02-23T00:42:13.722Z,100891.51
2023-02-23T00:47:15.579Z,100893.78
2023-02-23T00:52:17.131Z,100891.98
2023-02-23T00:57:18.597Z,100887.14
2023-02-23T01:02:20.299Z,100884.80
2023-02-23T01:07:25.605Z,100877.73
2023-02-23T01:12:27.096Z,100873.13
2023-02-23T01:17:30.637Z,100874.97
2023-02-23T01:22:32.167Z,100872.63
2023-02-23T01:27:35.824Z,100867.17
2023-02-23T01:32:38.320Z,100865.43
2023-02-23T01:37:42.498Z,100857.02
2023-02-23T01:42:46.518Z,100856.27
2023-02-23T01:47:49.381Z,100851.80
2023-02-23T01:52:52.304Z,100849.05
2023-02-23T01:58:05.580Z,100848.00
2023-02-23T02:03:12.150Z,100845.67
2023-02-23T02:08:14.556Z,100840.97
2023-02-23T02:13:20.739Z,100837.53
2023-02-23T02:18:52.280Z,100836.05
2023-02-23T02:24:17.220Z,100835.16
2023-02-23T02:29:49.748Z,100836.82
2023-02-23T02:34:54.413Z,100834.29
2023-02-23T02:40:16.804Z,100833.88
2023-02-23T02:45:33.361Z,100832.83
2023-02-23T02:50:42.614Z,100834.73
2023-02-23T02:55:48.894Z,100831.98
2023-02-23T03:01:10.273Z,100834.23
2023-02-23T03:06:30.940Z,100837.75
2023-02-23T03:12:06.345Z,100837.39
2023-02-23T03:18:08.332Z,100833.17
2023-02-23T03:23:53.900Z,100832.84
2023-02-23T03:29:13.858Z,100835.05
2023-02-23T03:34:41.000Z,100833.58
2023-02-23T03:40:10.571Z,100835.13
2023-02-23T03:45:35.461Z,100834.54
2023-02-23T03:50:59.793Z,100835.13
2023-02-23T03:56:21.442Z,100837.16
2023-02-23T04:01:43.532Z,100841.05
2023-02-23T04:07:06.749Z,100839.15
2023-02-23T04:12:50.300Z,100842.23
2023-02-23T04:17:53.966Z,100842.98
2023-02-23T04:22:55.739Z,100846.76
2023-02-23T04:27:57.474Z,100847.70
2023-02-23T04:32:59.395Z,100846.70
2023-02-23T04:38:01.046Z,100843.66
2023-02-23T04:43:02.757Z,100841.33
2023-02-23T04:48:04.748Z,100840.50
2023-02-23T04:53:06.306Z,100836.24
2023-02-23T04:58:13.767Z,100830.31
2023-02-23T05:03:17.478Z,100830.68
2023-02-23T05:08:19.050Z,100834.02
2023-02-23T05:13:20.635Z,100838.45
2023-02-23T05:18:22.140Z,100833.89
2023-02-23T05:23:23.669Z,100834.73
2023-02-23T05:28:25.212Z,100833.16
2023-02-23T05:33:27.082Z,100829.45
2023-02-23T05:38:28.614Z,100829.90
2023-02-23T05:43:30.095Z,100834.61
2023-02-23T05:48:31.584Z,100837.92
2023-02-23T05:53:33.281Z,100842.49
2023-02-23T05:58:35.015Z,100843.30
2023-02-23T06:03:36.524Z,100844.96
2023-02-23T06:08:38.356Z,100845.36
2023-02-23T06:13:40.435Z,100843.59
2023-02-23T06:18:42.023Z,100847.27
2023-02-23T06:23:43.528Z,100845.79
2023-02-23T06:28:45.022Z,100844.66
2023-02-23T06:33:46.576Z,100843.17
2023-02-23T06:38:48.517Z,100848.31
2023-02-23T06:43:50.409Z,100849.85
2023-02-23T06:48:55.823Z,100849.09
2023-02-23T06:53:57.315Z,100845.01
2023-02-23T06:58:58.781Z,100847.28
2023-02-23T07:04:00.321Z,100849.75
2023-02-23T07:09:01.887Z,100854.29
2023-02-23T07:14:03.449Z,100848.13
2023-02-23T07:19:05.560Z,100847.29
2023-02-23T07:24:08.688Z,100840.29
2023-02-23T07:29:12.413Z,100840.70
2023-02-23T07:34:13.894Z,100841.09
2023-02-23T07:39:15.640Z,100836.37
2023-02-23T07:44:17.179Z,100833.79
2023-02-23T07:49:18.774Z,100828.44
2023-02-23T07:54:21.885Z,100829.24
2023-02-23T07:59:23.407Z,100826.29
2023-02-23T08:04:24.942Z,100822.31
2023-02-23T08:09:26.458Z,100818.11
2023-02-23T08:14:28.652Z,100811.38
2023-02-23T08:19:30.573Z,100811.03
2023-02-23T08:24:32.334Z,100802.23
2023-02-23T08:29:34.999Z,100797.79
2023-02-23T08:34:41.723Z,100794.41
2023-02-23T08:39:44.202Z,100787.03
2023-02-23T08:44:46.411Z,100787.02
2023-02-23T08:49:48.583Z,100781.84
2023-02-23T08:54:50.163Z,100777.54
2023-02-23T08:59:51.769Z,100772.59
2023-02-23T09:04:54.127Z,100773.84
2023-02-23T09:09:57.100Z,100769.37
2023-02-23T09:14:58.798Z,100765.05
2023-02-23T09:20:00.291Z,100762.40
2023-02-23T09:25:01.862Z,100764.23
2023-02-23T09:30:04.813Z,100762.05
2023-02-23T09:35:07.147Z,100755.17
2023-02-23T09:40:14.686Z,100748.71
2023-02-23T09:45:32.022Z,100743.88
2023-02-23T09:50:35.369Z,100744.73
2023-02-23T09:55:40.996Z,100738.36
2023-02-23T10:00:46.973Z,100733.97
2023-02-23T10:05:55.713Z,100728.98
2023-02-23T10:11:17.331Z,100727.67
2023-02-23T10:16:30.094Z,100718.05
2023-02-23T10:21:38.102Z,100712.67
2023-02-23T10:26:50.703Z,100706.63
2023-02-23T10:31:58.352Z,100704.80
2023-02-23T10:37:02.581Z,100694.07
2023-02-23T10:42:06.394Z,100684.23
2023-02-23T10:47:14.780Z,100677.11
2023-02-23T10:52:46.800Z,100666.09
2023-02-23T10:57:48.477Z,100658.68
2023-02-23T11:02:50.242Z,100653.12
2023-02-23T11:08:08.901Z,100645.67
2023-02-23T11:13:27.332Z,100632.61
2023-02-23T11:18:29.749Z,100620.02
2023-02-23T11:23:37.052Z,100618.88
2023-02-23T11:28:43.126Z,100606.27
2023-02-23T11:33:47.162Z,100599.66
2023-02-23T11:38:56.557Z,100591.88
2023-02-23T11:43:59.529Z,100587.31
2023-02-23T11:49:05.191Z,100577.43
2023-02-23T11:54:17.087Z,100570.27
2023-02-23T11:59:35.049Z,100556.16
2023-02-23T12:04:40.646Z,100547.17
2023-02-23T12:09:46.375Z,100544.96
2023-02-23T12:15:04.211Z,100541.73
2023-02-23T12:20:21.518Z,100531.48
2023-02-23T12:25:56.144Z,100523.82
2023-02-23T12:31:28.430Z,100514.24
2023-02-23T12:36:39.677Z,100505.53
2023-02-23T12:41:44.705Z,100496.29
2023-02-23T12:46:51.498Z,100490.64
2023-02-23T12:52:00.048Z,100480.55
2023-02-23T12:57:39.656Z,100474.06
2023-02-23T13:02:46.258Z,100465.53
2023-02-23T13:08:13.639Z,100459.71
2023-02-23T13:13:46.531Z,100456.65
2023-02-23T13:19:19.597Z,100448.13
2023-02-23T13:24:27.439Z,100440.11
2023-02-23T13:29:36.160Z,100430.89
2023-02-23T13:35:03.453Z,100424.90
2023-02-23T13:40:20.239Z,100420.63
2023-02-23T13:45:55.089Z,100416.86
2023-02-23T13:50:56.583Z,100409.85
2023-02-23T13:56:07.236Z,100402.15
2023-02-23T14:01:15.694Z,100390.19
2023-02-23T14:06:19.716Z,100382.83
2023-02-23T14:11:40.600Z,100379.42
2023-02-23T14:16:43.229Z,100372.59
2023-02-23T14:21:52.619Z,100364.90
2023-02-23T14:27:34.226Z,100355.17
2023-02-23T14:32:44.405Z,100347.66
2023-02-23T14:37:56.563Z,100348.54
2023-02-23T14:43:00.853Z,100345.82
2023-02-23T14:48:08.449Z,100338.83
2023-02-23T14:53:29.859Z,100330.51
2023-02-23T14:58:35.297Z,100321.98
2023-02-23T15:03:37.157Z,100317.42
2023-02-23T15:08:44.776Z,100312.33
2023-02-23T15:13:52.224Z,100304.73
2023-02-23T15:18:54.047Z,100302.04
2023-02-23T15:24:14.109Z,100301.57
2023-02-23T15:29:22.023Z,100293.77
2023-02-23T15:34:27.092Z,100289.71
2023-02-23T15:39:53.389Z,100285.13
2023-02-23T15:44:58.955Z,100277.83
2023-02-23T15:50:34.981Z,100273.77
2023-02-23T15:55:38.271Z,100269.02
2023-02-23T16:00:42.600Z,100266.13
2023-02-23T16:05:55.508Z,100259.49
2023-02-23T16:11:13.410Z,100258.31
2023-02-23T16:16:19.583Z,100257.98
2023-02-23T16:21:25.335Z,100250.81
2023-02-23T16:26:33.726Z,100243.48
2023-02-23T16:31:50.504Z,100246.20
2023-02-23T16:37:00.021Z,100244.98
2023-02-23T16:42:01.633Z,100250.10
2023-02-23T16:47:03.079Z,100250.96
2023-02-23T16:52:15.973Z,100247.55
2023-02-23T16:57:29.685Z,100239.71
2023-02-23T17:02:31.199Z,100233.23
2023-02-23T17:07:32.772Z,100235.61
2023-02-23T17:12:34.603Z,100230.83
2023-02-23T17:17:36.072Z,100224.84
2023-02-23T17:22:37.615Z,100219.55
2023-02-23T17:27:39.319Z,100209.66
2023-02-23T17:32:41.242Z,100208.14
2023-02-23T17:37:44.754Z,100201.36
2023-02-23T17:42:46.560Z,100192.70
2023-02-23T17:47:48.457Z,100186.57
2023-02-23T17:52:51.475Z,100177.89
2023-02-23T17:57:53.016Z,100173.29
2023-02-23T18:02:54.716Z,100168.68
2023-02-23T18:07:56.328Z,100163.76
2023-02-23T18:12:57.979Z,100151.02
2023-02-23T18:18:01.380Z,100142.36
2023-02-23T18:23:02.970Z,100141.20
2023-02-23T18:28:06.506Z,100133.53
2023-02-23T18:33:09.085Z,100129.63
2023-02-23T18:38:13.979Z,100122.13
2023-02-23T18:43:17.873Z,100121.27
2023-02-23T18:48:20.543Z,100115.33
2023-02-23T18:53:22.319Z,100111.75
2023-02-23T18:58:24.348Z,100100.02
2023-02-23T19:03:25.914Z,100086.26
2023-02-23T19:08:30.890Z,100076.38
2023-02-23T19:13:32.455Z,100070.59
2023-02-23T19:18:35.787Z,100067.69
2023-02-23T19:23:37.774Z,100059.72
2023-02-23T19:28:39.704Z,100050.55
2023-02-23T19:33:42.273Z,100039.67
2023-02-23T19:38:44.572Z,100031.52
2023-02-23T19:43:46.509Z,100025.21
2023-02-23T19:48:53.892Z,100020.27
2023-02-23T19:53:57.206Z,100013.50
2023-02-23T19:59:01.050Z,100002.62
2023-02-23T20:04:06.576Z,99998.70
2023-02-23T20:09:09.563Z,99989.86
2023-02-23T20:14:12.426Z,99985.93
2023-02-23T20:19:14.074Z,99983.20
2023-02-23T20:24:15.977Z,99973.02
2023-02-23T20:29:19.276Z,99971.14
2023-02-23T20:34:24.392Z,99965.52
2023-02-23T20:39:27.152Z,99956.35
2023-02-23T20:44:30.271Z,99947.66
2023-02-23T20:49:31.847Z,99945.09
2023-02-23T20:54:33.415Z,99938.27
2023-02-23T20:59:38.885Z,99932.48
2023-02-23T21:04:43.506Z,99917.89
2023-02-23T21:09:45.579Z,99910.27
2023-02-23T21:14:48.363Z,99906.04
2023-02-23T21:19:49.978Z,99896.52
2023-02-23T21:24:51.455Z,99889.19
2023-02-23T21:29:55.437Z,99882.38
2023-02-23T21:34:58.614Z,99876.09
2023-02-23T21:40:00.134Z,99876.22
2023-02-23T21:45:01.796Z,99873.70
2023-02-23T21:50:03.822Z,99866.43
2023-02-23T21:55:13.273Z,99865.09
2023-02-23T22:00:21.779Z,99856.80
2023-02-23T22:05:23.437Z,99846.45
2023-02-23T22:10:24.953Z,99837.96
2023-02-23T22:15:27.363Z,99825.08
2023-02-23T22:20:28.912Z,99816.43
2023-02-23T22:25:30.420Z,99809.31
2023-02-23T22:30:31.944Z,99804.41
2023-02-23T22:35:33.425Z,99796.95
2023-02-23T22:40:35.924Z,99793.38
2023-02-23T22:45:38.562Z,99782.02
2023-02-23T22:50:42.254Z,99769.27
2023-02-23T22:55:48.927Z,99760.61
2023-02-23T23:01:02.527Z,99757.05
2023-02-23T23:06:08.172Z,99750.61
2023-02-23T23:11:25.993Z,99739.08
2023-02-23T23:16:33.609Z,99728.90
2023-02-23T23:21:35.811Z,99719.41
2023-02-23T23:26:39.753Z,99716.85
2023-02-23T23:31:45.488Z,99713.46
2023-02-23T23:36:53.266Z,99708.20
2023-02-23T23:41:55.126Z,99699.73
2023-02-23T23:46:58.199Z,99688.52
2023-02-23T23:52:00.183Z,99683.08
2023-02-23T23:57:01.720Z,99676.13
